Time;durP1;ratioP1;P1;durP2;ratioP2;P2;SDS_P1;SDS_P2;PMS_P1;PMS_P2;Temp;Humidity;BMP_temperature;BMP_pressure;BME280_temperature;BME280_humidity;BME280_pressure;Samples;Min_cycle;Max_cycle;Signal;HPM_P1;HPM_P2
2021/08/15 00:01:13;;;;;;;8.70;6.78;;;;;;;14.12;94.70;100920.16;4944690;28;20034;-81
2021/08/15 00:03:40;;;;;;;9.35;7.78;;;;;;;14.09;94.40;100910.50;4928294;28;20065;-81
2021/08/15 00:06:07;;;;;;;10.43;9.05;;;;;;;14.08;94.86;100912.28;4956453;28;20063;-80
2021/08/15 00:08:34;;;;;;;11.63;9.75;;;;;;;14.08;95.57;100904.31;4927044;28;20517;-79
2021/08/15 00:11:02;;;;;;;14.25;10.05;;;;;;;14.06;94.77;100906.16;4950253;28;20098;-82
2021/08/15 00:13:28;;;;;;;10.57;9.40;;;;;;;14.00;95.37;100908.13;4944572;28;20043;-80
2021/08/15 00:15:55;;;;;;;11.70;9.82;;;;;;;14.00;95.77;100901.03;4929225;29;20040;-80
2021/08/15 00:18:22;;;;;;;10.50;9.50;;;;;;;13.99;95.17;100909.91;4938507;28;20054;-81
2021/08/15 00:20:48;;;;;;;16.50;10.10;;;;;;;13.94;95.59;100903.00;4945275;28;20091;-82
2021/08/15 00:23:15;;;;;;;10.40;8.88;;;;;;;13.95;95.24;100905.59;4944221;28;20463;-82
2021/08/15 00:25:42;;;;;;;10.68;8.65;;;;;;;13.90;95.69;100901.38;4957073;28;20115;-80
2021/08/15 00:28:08;;;;;;;11.57;9.13;;;;;;;13.86;95.23;100908.53;4947897;28;20515;-80
2021/08/15 00:30:35;;;;;;;10.88;8.55;;;;;;;13.82;96.67;100903.38;4935119;28;20053;-80
2021/08/15 00:33:02;;;;;;;9.80;7.95;;;;;;;13.83;97.05;100900.66;4943117;28;20042;-80
2021/08/15 00:35:28;;;;;;;10.85;8.40;;;;;;;13.81;96.60;100897.19;4927928;28;20069;-78
2021/08/15 00:37:55;;;;;;;14.80;7.45;;;;;;;13.76;96.78;100897.31;4929045;28;20038;-81
2021/08/15 00:40:21;;;;;;;13.30;8.00;;;;;;;13.72;96.82;100902.78;4963107;28;20098;-80
2021/08/15 00:42:48;;;;;;;10.20;8.25;;;;;;;13.70;96.54;100891.31;4919601;28;20043;-80
2021/08/15 00:45:15;;;;;;;10.80;8.35;;;;;;;13.69;96.89;100905.50;4946024;28;20047;-78
2021/08/15 00:47:41;;;;;;;10.05;8.10;;;;;;;13.67;97.79;100905.56;4950695;28;20077;-79
2021/08/15 00:50:08;;;;;;;9.18;7.47;;;;;;;13.72;98.04;100894.81;4928307;28;20109;-80
2021/08/15 00:52:35;;;;;;;8.10;7.25;;;;;;;13.77;97.91;100896.41;4929810;28;20047;-79
2021/08/15 00:55:03;;;;;;;8.43;7.10;;;;;;;13.76;99.40;100893.81;4930419;28;20043;-81
2021/08/15 00:57:30;;;;;;;10.48;7.60;;;;;;;13.76;99.98;100893.81;4918197;28;20039;-80
2021/08/15 01:00:05;;;;;;;9.73;7.50;;;;;;;13.85;99.37;100890.88;4932797;28;20075;-80
2021/08/15 01:02:33;;;;;;;8.23;6.30;;;;;;;13.84;99.91;100894.44;4932518;28;20051;-82
2021/08/15 01:05:01;;;;;;;7.90;6.72;;;;;;;13.86;100.00;100892.59;4927022;28;20091;-81
2021/08/15 01:07:28;;;;;;;9.85;7.07;;;;;;;13.87;100.00;100890.81;4946375;28;20042;-81
2021/08/15 01:09:55;;;;;;;8.07;6.35;;;;;;;13.87;99.76;100888.16;4997273;23;20039;-81
2021/08/15 01:12:26;;;;;;;9.02;7.07;;;;;;;13.89;98.61;100881.91;4928344;28;20451;-78
2021/08/15 01:14:55;;;;;;;8.18;6.68;;;;;;;13.85;98.63;100890.00;4947944;28;20097;-81
2021/08/15 01:17:22;;;;;;;8.57;7.22;;;;;;;13.75;98.69;100881.44;4930301;28;20046;-80
2021/08/15 01:19:53;;;;;;;9.23;6.85;;;;;;;13.78;98.74;100884.00;4939110;28;20534;-81
2021/08/15 01:22:21;;;;;;;10.20;6.88;;;;;;;13.79;98.49;100888.41;4943597;28;20062;-80
2021/08/15 01:24:49;;;;;;;8.27;6.55;;;;;;;13.78;100.00;100879.53;4941819;28;20070;-82
2021/08/15 01:27:24;;;;;;;8.88;6.80;;;;;;;13.76;100.00;100885.84;4921200;28;20397;-82
2021/08/15 01:29:50;;;;;;;9.32;7.07;;;;;;;13.72;100.00;100889.50;4928369;28;20094;-80
2021/08/15 01:32:17;;;;;;;9.15;6.90;;;;;;;13.72;100.00;100882.41;4927461;28;20034;-82
2021/08/15 01:34:44;;;;;;;9.48;6.68;;;;;;;13.73;99.11;100881.50;4933195;29;20420;-78
2021/08/15 01:37:11;;;;;;;9.95;7.57;;;;;;;13.64;98.72;100878.25;4926402;28;20045;-80
2021/08/15 01:39:40;;;;;;;8.98;6.13;;;;;;;13.60;100.00;100885.41;4943623;28;20062;-81
2021/08/15 01:42:07;;;;;;;8.07;6.43;;;;;;;13.62;99.52;100880.06;4928957;28;20036;-79
2021/08/15 01:44:33;;;;;;;8.80;6.45;;;;;;;13.60;99.28;100885.41;4924944;28;20047;-81
2021/08/15 01:47:00;;;;;;;8.82;6.40;;;;;;;13.56;100.00;100888.22;4943269;28;20047;-81
2021/08/15 01:49:27;;;;;;;10.00;6.63;;;;;;;13.57;100.00;100885.50;4924302;28;20051;-81
2021/08/15 01:51:54;;;;;;;8.25;6.57;;;;;;;13.55;100.00;100876.72;4926042;28;20118;-81
2021/08/15 01:54:20;;;;;;;10.15;6.60;;;;;;;13.59;100.00;100877.50;4926233;28;20074;-81
2021/08/15 01:56:47;;;;;;;7.32;5.78;;;;;;;13.54;100.00;100882.97;4925520;28;20047;-80
2021/08/15 01:59:13;;;;;;;7.93;6.22;;;;;;;13.52;100.00;100880.31;4957050;28;20488;-81
2021/08/15 02:01:40;;;;;;;7.78;6.53;;;;;;;13.53;100.00;100878.53;4939746;28;20046;-81
2021/08/15 02:04:07;;;;;;;10.35;6.63;;;;;;;13.49;99.96;100882.22;4916611;29;20099;-80
2021/08/15 02:06:34;;;;;;;7.65;6.13;;;;;;;13.47;99.60;100876.94;4927253;28;20113;-81
2021/08/15 02:09:00;;;;;;;7.13;6.43;;;;;;;13.46;99.82;100882.31;4937393;28;20043;-81
2021/08/15 02:11:27;;;;;;;7.35;6.13;;;;;;;13.38;100.00;100873.69;4947331;28;20042;-80
2021/08/15 02:13:54;;;;;;;7.90;6.40;;;;;;;13.33;100.00;100875.59;4937884;28;20547;-80
2021/08/15 02:16:20;;;;;;;8.07;6.72;;;;;;;13.30;100.00;100870.41;4928643;28;20047;-82
2021/08/15 02:18:47;;;;;;;10.25;6.30;;;;;;;13.27;100.00;100863.38;4930563;29;20047;-80
2021/08/15 02:21:13;;;;;;;6.78;5.95;;;;;;;13.29;99.36;100864.22;4944209;28;20055;-80
2021/08/15 02:23:40;;;;;;;7.30;6.18;;;;;;;13.26;99.54;100868.72;4929866;28;20042;-80
2021/08/15 02:26:07;;;;;;;7.80;5.47;;;;;;;13.17;99.51;100864.50;4947115;28;20101;-79
2021/08/15 02:28:33;;;;;;;9.48;6.03;;;;;;;13.12;98.78;100867.31;4948229;28;20054;-81
2021/08/15 02:31:00;;;;;;;10.15;7.07;;;;;;;13.13;99.57;100865.53;4941913;28;20843;-81
2021/08/15 02:33:27;;;;;;;8.52;5.90;;;;;;;13.06;99.57;100869.25;4933381;28;20050;-81
2021/08/15 02:35:53;;;;;;;8.90;6.43;;;;;;;13.04;100.00;100857.81;4949121;28;20470;-82
2021/08/15 02:38:21;;;;;;;9.45;6.13;;;;;;;13.02;99.67;100857.84;4947335;28;20043;-79
2021/08/15 02:40:48;;;;;;;7.97;6.03;;;;;;;12.99;99.59;100851.75;4928832;28;20098;-80
2021/08/15 02:43:15;;;;;;;6.55;5.95;;;;;;;12.93;99.46;100860.75;4928464;28;20113;-80
2021/08/15 02:45:41;;;;;;;7.70;5.35;;;;;;;12.87;99.67;100866.22;4903608;28;20058;-80
2021/08/15 02:48:08;;;;;;;6.85;6.05;;;;;;;12.91;100.00;100854.63;4924909;28;20049;-82
2021/08/15 02:50:35;;;;;;;6.35;5.32;;;;;;;12.84;99.58;100861.00;4942990;28;20059;-81
2021/08/15 02:53:01;;;;;;;6.90;5.25;;;;;;;12.79;100.00;100855.81;4933192;28;20110;-79
2021/08/15 02:55:28;;;;;;;7.45;6.05;;;;;;;12.78;100.00;100850.53;4947213;28;20078;-79
2021/08/15 02:57:55;;;;;;;8.00;5.45;;;;;;;12.73;100.00;100853.31;4927375;28;20038;-81
2021/08/15 03:00:21;;;;;;;8.48;5.85;;;;;;;12.75;99.49;100854.16;4939863;28;20046;-81
2021/08/15 03:02:48;;;;;;;7.30;5.50;;;;;;;12.75;98.94;100853.28;4948741;28;20617;-82
2021/08/15 03:05:19;;;;;;;7.22;5.55;;;;;;;12.72;99.04;100864.84;4950033;28;20094;-81
2021/08/15 03:07:47;;;;;;;7.32;5.65;;;;;;;12.62;99.66;100871.31;4928694;28;20039;-81
2021/08/15 03:10:15;;;;;;;7.50;5.80;;;;;;;12.62;100.00;100860.69;4917577;28;20047;-79
2021/08/15 03:12:41;;;;;;;7.00;5.28;;;;;;;12.59;100.00;100866.94;4958113;28;20043;-80
2021/08/15 03:15:09;;;;;;;7.25;5.75;;;;;;;12.56;100.00;100863.50;4931336;28;20065;-80
2021/08/15 03:17:35;;;;;;;6.90;5.57;;;;;;;12.56;100.00;100866.16;4952121;28;20074;-81
2021/08/15 03:20:02;;;;;;;7.97;5.47;;;;;;;12.54;100.00;100857.38;4931294;28;20050;-79
2021/08/15 03:22:29;;;;;;;7.82;6.35;;;;;;;12.53;100.00;100861.81;4949026;28;20569;-80
2021/08/15 03:24:55;;;;;;;8.25;6.03;;;;;;;12.49;100.00;100864.56;4948873;28;20048;-81
2021/08/15 03:27:22;;;;;;;7.28;5.55;;;;;;;12.48;100.00;100853.09;4946064;28;20500;-82
2021/08/15 03:29:49;;;;;;;6.53;5.60;;;;;;;12.48;100.00;100863.69;4944487;28;20047;-81
2021/08/15 03:32:16;;;;;;;8.75;5.47;;;;;;;12.51;100.00;100855.66;4932645;28;20109;-81
2021/08/15 03:34:43;;;;;;;8.45;5.85;;;;;;;12.49;100.00;100864.56;4965023;28;20069;-82
2021/08/15 03:37:09;;;;;;;7.05;6.03;;;;;;;12.54;100.00;100852.94;4945994;28;20755;-81
2021/08/15 03:39:36;;;;;;;7.95;5.53;;;;;;;12.61;100.00;100858.94;4947083;28;20034;-79
2021/08/15 03:42:03;;;;;;;7.05;5.57;;;;;;;12.61;100.00;100867.78;4933967;28;20047;-81
2021/08/15 03:44:32;;;;;;;9.45;6.05;;;;;;;12.59;100.00;100866.06;4928469;28;20550;-81
2021/08/15 03:46:59;;;;;;;7.78;5.72;;;;;;;12.51;100.00;100863.59;4952038;28;20059;-81
2021/08/15 03:49:27;;;;;;;7.07;5.80;;;;;;;12.52;100.00;100854.72;4946089;28;20476;-81
2021/08/15 03:51:54;;;;;;;7.90;5.82;;;;;;;12.46;100.00;100852.25;4928234;28;20053;-78
2021/08/15 03:54:21;;;;;;;7.80;5.32;;;;;;;12.50;100.00;100864.50;4929219;28;20476;-82
2021/08/15 03:56:49;;;;;;;8.30;5.85;;;;;;;12.49;100.00;100861.91;4950165;28;20051;-80
2021/08/15 03:59:16;;;;;;;8.20;5.95;;;;;;;12.44;100.00;100859.34;4931516;28;20055;-81
2021/08/15 04:01:43;;;;;;;8.60;5.78;;;;;;;12.43;100.00;100854.97;4932479;28;20053;-78
2021/08/15 04:04:09;;;;;;;8.13;6.65;;;;;;;12.49;100.00;100856.59;4932881;28;20054;-81
2021/08/15 04:06:37;;;;;;;7.43;5.90;;;;;;;12.51;100.00;100858.28;4929302;28;20179;-80
2021/08/15 04:09:04;;;;;;;10.27;5.88;;;;;;;12.52;100.00;100859.16;4946228;28;20554;-81
2021/08/15 04:11:31;;;;;;;8.75;5.75;;;;;;;12.52;100.00;100853.88;4947446;28;20414;-79
2021/08/15 04:13:57;;;;;;;8.93;6.43;;;;;;;12.54;100.00;100852.06;4947243;28;20385;-81
2021/08/15 04:16:24;;;;;;;8.10;6.07;;;;;;;12.66;100.00;100846.44;4950759;28;20118;-82
2021/08/15 04:18:51;;;;;;;8.93;6.30;;;;;;;12.75;100.00;100842.69;4949772;28;20035;-80
2021/08/15 04:21:17;;;;;;;8.13;6.07;;;;;;;12.75;100.00;100845.31;4948423;28;20531;-81
2021/08/15 04:23:44;;;;;;;7.18;5.47;;;;;;;12.81;100.00;100848.69;4936568;28;20050;-81
2021/08/15 04:26:11;;;;;;;8.65;5.28;;;;;;;12.75;100.00;100854.16;4927673;29;20044;-81
2021/08/15 04:28:37;;;;;;;7.43;5.35;;;;;;;12.71;100.00;100855.16;4945557;28;20098;-80
2021/08/15 04:31:04;;;;;;;9.63;5.97;;;;;;;12.79;100.00;100854.97;4929519;28;20043;-81
2021/08/15 04:33:31;;;;;;;8.65;5.78;;;;;;;12.73;100.00;100850.69;4966319;28;20086;-80
2021/08/15 04:35:57;;;;;;;6.20;5.32;;;;;;;12.81;100.00;100850.47;4957506;28;20051;-78
2021/08/15 04:38:25;;;;;;;7.50;5.72;;;;;;;12.74;100.00;100849.75;4946407;28;20416;-81
2021/08/15 04:40:52;;;;;;;10.68;5.53;;;;;;;12.76;100.00;100850.59;4928018;29;20075;-79
2021/08/15 04:43:19;;;;;;;7.38;5.63;;;;;;;12.79;100.00;100858.47;4935877;28;20452;-82
2021/08/15 04:45:46;;;;;;;8.27;5.68;;;;;;;12.80;100.00;100848.75;4917265;28;20043;-79
2021/08/15 04:48:14;;;;;;;9.27;5.85;;;;;;;12.87;100.00;100847.66;4945197;28;20504;-82
2021/08/15 04:50:41;;;;;;;9.20;5.40;;;;;;;12.93;100.00;100844.81;4948471;28;20047;-80
2021/08/15 04:53:07;;;;;;;10.43;5.57;;;;;;;13.00;100.00;100853.50;4935289;28;20046;-79
2021/08/15 04:55:35;;;;;;;6.72;5.38;;;;;;;13.03;100.00;100850.75;4928577;28;20045;-80
2021/08/15 04:58:03;;;;;;;6.68;4.88;;;;;;;13.02;100.00;100844.56;4934865;28;20444;-80
2021/08/15 05:00:30;;;;;;;8.70;5.35;;;;;;;13.06;100.00;100840.94;4916974;28;20031;-77
2021/08/15 05:02:57;;;;;;;9.65;7.30;;;;;;;13.11;100.00;100833.72;4944552;29;20130;-80
2021/08/15 05:05:24;;;;;;;9.98;6.53;;;;;;;13.22;100.00;100847.59;4946567;29;20107;-81
2021/08/15 05:07:50;;;;;;;7.97;6.50;;;;;;;13.27;100.00;100833.31;4939265;29;20469;-78
2021/08/15 05:10:18;;;;;;;9.00;6.43;;;;;;;13.31;100.00;100830.53;4953553;28;20050;-81
2021/08/15 05:12:45;;;;;;;10.00;6.38;;;;;;;13.44;100.00;100826.59;4951139;29;20051;-79
2021/08/15 05:15:12;;;;;;;9.68;6.88;;;;;;;13.57;100.00;100836.88;4922177;28;20429;-81
2021/08/15 05:17:39;;;;;;;8.77;5.78;;;;;;;13.66;100.00;100841.91;4932165;28;20051;-80
2021/08/15 05:20:06;;;;;;;9.15;5.90;;;;;;;13.70;100.00;100838.22;4927976;28;20094;-80
2021/08/15 05:22:33;;;;;;;7.35;5.35;;;;;;;13.77;100.00;100840.63;4951202;28;20708;-80
2021/08/15 05:24:59;;;;;;;8.18;5.57;;;;;;;13.86;100.00;100843.94;4952835;28;20159;-80
2021/08/15 05:27:26;;;;;;;12.45;6.50;;;;;;;13.95;100.00;100839.19;4949781;28;20102;-80
2021/08/15 05:29:52;;;;;;;10.50;5.85;;;;;;;13.98;100.00;100840.91;4957506;28;20051;-82
2021/08/15 05:32:19;;;;;;;10.20;6.55;;;;;;;14.03;100.00;100831.84;4932742;28;20078;-80
2021/08/15 05:34:46;;;;;;;6.65;5.63;;;;;;;14.11;100.00;100831.59;4928022;28;20488;-80
2021/08/15 05:37:12;;;;;;;8.85;5.68;;;;;;;14.17;100.00;100839.38;4936113;28;20101;-82
2021/08/15 05:39:39;;;;;;;10.50;5.53;;;;;;;14.32;100.00;100843.34;4934830;28;20046;-79
2021/08/15 05:42:06;;;;;;;7.47;5.93;;;;;;;14.40;100.00;100843.09;4917577;28;20051;-81
2021/08/15 05:44:32;;;;;;;8.52;5.13;;;;;;;14.50;100.00;100834.78;4927817;28;20615;-82
2021/08/15 05:47:01;;;;;;;8.20;6.47;;;;;;;14.61;100.00;100827.28;4924911;28;20046;-81
2021/08/15 05:49:27;;;;;;;9.35;5.53;;;;;;;14.74;100.00;100837.53;4941703;29;20043;-79
2021/08/15 05:51:54;;;;;;;7.43;4.82;;;;;;;14.84;100.00;100828.28;4947409;28;20576;-84
2021/08/15 05:54:21;;;;;;;9.50;5.88;;;;;;;14.93;100.00;100820.00;4957443;28;20566;-83
2021/08/15 05:56:47;;;;;;;8.60;5.45;;;;;;;15.02;100.00;100832.97;4943865;28;20051;-82
2021/08/15 05:59:14;;;;;;;7.45;5.55;;;;;;;15.06;100.00;100831.06;4964971;28;20591;-81
2021/08/15 06:01:40;;;;;;;7.57;5.53;;;;;;;15.15;100.00;100828.94;4939365;28;20046;-82
2021/08/15 06:04:07;;;;;;;9.20;5.57;;;;;;;15.23;100.00;100817.16;4913821;29;20047;-81
2021/08/15 06:06:34;;;;;;;8.05;5.45;;;;;;;15.26;100.00;100807.25;4930873;28;20043;-82
2021/08/15 06:09:01;;;;;;;7.07;4.68;;;;;;;15.33;100.00;100818.53;4960267;28;20046;-82
2021/08/15 06:11:28;;;;;;;8.20;4.40;;;;;;;15.35;100.00;100814.88;4949450;28;20276;-79
2021/08/15 06:13:57;;;;;;;7.35;4.97;;;;;;;15.41;100.00;100813.78;4917243;28;20858;-79
2021/08/15 06:16:24;;;;;;;8.05;4.93;;;;;;;15.39;99.58;100813.84;4935054;28;20046;-81
2021/08/15 06:18:51;;;;;;;6.60;4.97;;;;;;;15.48;99.95;100818.81;4957227;28;20043;-83
2021/08/15 06:21:21;;;;;;;9.40;6.07;;;;;;;15.53;100.00;100821.28;4938341;28;20054;-79
2021/08/15 06:23:49;;;;;;;9.02;5.00;;;;;;;15.69;100.00;100819.81;4967485;28;20045;-83
2021/08/15 06:26:16;;;;;;;9.52;5.03;;;;;;;16.11;100.00;100819.03;4918888;28;20051;-81
2021/08/15 06:28:43;;;;;;;11.23;4.88;;;;;;;17.15;92.91;100819.91;4948833;28;20412;-80
2021/08/15 06:31:20;;;;;;;7.28;4.45;;;;;;;18.22;86.44;100815.72;4938299;28;20046;-81
2021/08/15 06:33:47;;;;;;;9.60;4.13;;;;;;;19.65;76.48;100827.91;4941641;29;20074;-82
2021/08/15 06:36:14;;;;;;;7.65;4.40;;;;;;;20.60;70.47;100823.38;4923363;28;20043;-81
2021/08/15 06:38:41;;;;;;;7.72;3.88;;;;;;;21.00;67.86;100827.19;4948152;28;20043;-79
2021/08/15 06:41:08;;;;;;;11.55;4.75;;;;;;;20.77;67.61;100833.09;4926488;28;20109;-81
2021/08/15 06:43:35;;;;;;;9.23;4.57;;;;;;;20.76;67.58;100832.22;4931540;28;20497;-80
2021/08/15 06:46:02;;;;;;;7.72;4.40;;;;;;;20.91;69.11;100826.88;4953278;28;20039;-82
2021/08/15 06:48:29;;;;;;;11.95;4.82;;;;;;;20.62;68.39;100831.31;4951205;28;20407;-79
2021/08/15 06:50:58;;;;;;;10.25;4.15;;;;;;;20.55;69.59;100830.81;4938190;28;20043;-82
2021/08/15 06:53:29;;;;;;;11.07;4.65;;;;;;;20.61;70.91;100822.41;4941386;28;20436;-83
2021/08/15 06:55:58;;;;;;;6.13;3.97;;;;;;;20.45;71.42;100835.88;4938652;28;20047;-81
2021/08/15 06:58:28;;;;;;;7.47;4.20;;;;;;;20.36;70.78;100833.69;4945435;28;20047;-81
2021/08/15 07:00:55;;;;;;;8.95;4.40;;;;;;;20.16;71.23;100829.47;4961675;28;20085;-82
2021/08/15 07:03:22;;;;;;;7.72;3.78;;;;;;;20.05;71.50;100823.84;4934752;28;20113;-81
2021/08/15 07:05:49;;;;;;;8.85;4.22;;;;;;;20.05;72.42;100823.84;4950296;28;20066;-82
2021/08/15 07:08:16;;;;;;;8.15;4.20;;;;;;;20.15;72.18;100832.25;4939639;28;20039;-82
2021/08/15 07:10:44;;;;;;;8.20;4.78;;;;;;;20.13;72.16;100832.34;4931674;28;20054;-81
2021/08/15 07:13:11;;;;;;;5.38;4.18;;;;;;;20.36;72.49;100831.00;4937780;28;20105;-79
2021/08/15 07:15:38;;;;;;;8.27;4.07;;;;;;;20.62;72.80;100832.19;4945427;28;20035;-81
2021/08/15 07:18:05;;;;;;;9.77;4.57;;;;;;;20.87;71.11;100826.22;5003354;23;20129;-80
2021/08/15 07:20:32;;;;;;;8.00;4.95;;;;;;;21.05;67.61;100832.28;4949897;28;20038;-79
2021/08/15 07:22:58;;;;;;;8.55;4.13;;;;;;;21.08;67.27;100824.88;4968267;28;20089;-79
2021/08/15 07:25:28;;;;;;;11.25;3.90;;;;;;;20.88;66.21;100832.44;4935403;28;20054;-80
2021/08/15 07:28:00;;;;;;;8.02;4.13;;;;;;;20.98;66.59;100817.50;4952966;28;20050;-79
2021/08/15 07:30:28;;;;;;;6.93;4.22;;;;;;;20.88;66.27;100819.88;4936249;28;20496;-80
2021/08/15 07:32:58;;;;;;;6.28;4.05;;;;;;;20.96;67.62;100827.47;4966184;28;20035;-80
2021/08/15 07:35:26;;;;;;;5.60;3.80;;;;;;;20.83;67.61;100827.34;4945924;28;20047;-81
2021/08/15 07:37:53;;;;;;;6.07;4.20;;;;;;;20.73;67.43;100821.66;4955223;28;20050;-82
2021/08/15 07:40:20;;;;;;;10.70;3.92;;;;;;;20.80;67.06;100811.41;4947347;28;20042;-80
2021/08/15 07:42:50;;;;;;;8.52;4.10;;;;;;;20.78;67.10;100810.66;4957793;28;20053;-80
2021/08/15 07:45:19;;;;;;;6.43;4.00;;;;;;;20.74;68.88;100809.97;4968310;28;20543;-80
2021/08/15 07:47:46;;;;;;;7.88;3.97;;;;;;;20.78;66.56;100808.84;4950971;28;20058;-79
2021/08/15 07:50:13;;;;;;;8.90;3.70;;;;;;;20.85;67.75;100827.25;4970100;28;20532;-78
2021/08/15 07:52:41;;;;;;;7.85;3.95;;;;;;;21.00;66.50;100831.69;4971962;28;20046;-79
2021/08/15 07:55:08;;;;;;;8.77;4.20;;;;;;;21.20;65.33;100827.78;4953441;28;20069;-79
2021/08/15 07:57:36;;;;;;;8.05;3.80;;;;;;;21.39;64.74;100835.59;4956619;28;20054;-79
2021/08/15 08:00:04;;;;;;;7.88;4.63;;;;;;;21.37;66.59;100846.44;4955762;28;20046;-80
2021/08/15 08:02:31;;;;;;;7.05;4.00;;;;;;;21.37;66.03;100824.09;4956259;28;20118;-80
2021/08/15 08:04:58;;;;;;;7.75;4.30;;;;;;;21.44;66.49;100820.91;4956651;28;20523;-79
2021/08/15 08:07:25;;;;;;;7.22;4.00;;;;;;;21.68;66.19;100833.75;4960649;28;20042;-82
2021/08/15 08:09:53;;;;;;;8.93;3.85;;;;;;;21.78;63.76;100819.63;4948126;28;20043;-81
2021/08/15 08:12:21;;;;;;;9.63;4.50;;;;;;;21.84;63.77;100796.81;4954152;28;20057;-81
2021/08/15 08:14:48;;;;;;;8.10;3.95;;;;;;;21.83;62.88;100806.72;4956274;28;20077;-82
2021/08/15 08:17:16;;;;;;;9.82;4.53;;;;;;;21.89;63.26;100810.84;4961357;28;20101;-82
2021/08/15 08:19:43;;;;;;;7.47;4.75;;;;;;;21.89;64.15;100814.41;4959290;28;20049;-80
2021/08/15 08:22:11;;;;;;;7.78;5.10;;;;;;;21.85;63.50;100807.47;4944035;28;20076;-81
2021/08/15 08:24:38;;;;;;;6.68;4.07;;;;;;;21.79;63.75;100805.22;4958194;28;20061;-81
2021/08/15 08:27:05;;;;;;;7.82;4.20;;;;;;;21.74;63.26;100812.69;4970800;28;20089;-81
2021/08/15 08:29:31;;;;;;;8.00;3.85;;;;;;;21.76;64.48;100805.38;4941759;28;20660;-80
2021/08/15 08:31:58;;;;;;;7.18;4.70;;;;;;;21.76;63.35;100812.59;4954018;28;20085;-81
2021/08/15 08:34:25;;;;;;;7.35;4.05;;;;;;;21.77;63.81;100817.88;4961786;28;20050;-81
2021/08/15 08:36:52;;;;;;;8.32;3.90;;;;;;;21.93;63.49;100801.59;4955320;28;20585;-80
2021/08/15 08:39:19;;;;;;;5.20;3.75;;;;;;;22.10;60.96;100804.06;4958923;28;20047;-80
2021/08/15 08:41:46;;;;;;;6.95;3.60;;;;;;;22.12;58.58;100791.41;4937910;28;20042;-79
2021/08/15 08:44:13;;;;;;;6.10;4.25;;;;;;;22.04;59.61;100788.34;4973078;28;20081;-82
2021/08/15 08:46:40;;;;;;;9.07;4.30;;;;;;;22.13;60.77;100781.50;4942249;28;20065;-82
2021/08/15 08:49:07;;;;;;;5.68;3.70;;;;;;;22.27;60.76;100776.03;4948028;28;20125;-79
2021/08/15 08:51:34;;;;;;;5.88;3.78;;;;;;;22.33;60.76;100767.56;4981395;28;20073;-82
2021/08/15 08:54:21;;;;;;;5.95;4.13;;;;;;;22.46;60.41;100765.78;4980878;28;20586;-81
2021/08/15 08:56:48;;;;;;;9.35;4.85;;;;;;;22.16;59.33;100770.53;4952881;28;20097;-80
2021/08/15 08:59:15;;;;;;;9.68;4.80;;;;;;;22.53;60.01;100771.56;4970920;28;20468;-79
2021/08/15 09:01:42;;;;;;;8.40;3.83;;;;;;;22.63;58.27;100771.84;4956965;28;20137;-78
2021/08/15 09:04:12;;;;;;;9.13;4.40;;;;;;;22.80;58.11;100768.84;4968692;28;20128;-79
2021/08/15 09:06:39;;;;;;;9.05;4.30;;;;;;;22.87;59.61;100771.97;4971327;28;20651;-79
2021/08/15 09:09:15;;;;;;;7.38;4.18;;;;;;;22.80;56.30;100771.53;4954061;28;20044;-81
2021/08/15 09:11:45;;;;;;;9.90;4.07;;;;;;;22.66;58.19;100766.22;4938329;28;20150;-80
2021/08/15 09:14:19;;;;;;;7.57;4.18;;;;;;;22.79;54.32;100779.72;4970685;28;20046;-78
2021/08/15 09:17:06;;;;;;;20.90;5.65;;;;;;;23.18;54.92;100784.16;4943895;28;20049;-79
2021/08/15 09:19:39;;;;;;;5.70;3.80;;;;;;;23.57;56.29;100780.44;4947234;28;20145;-79
2021/08/15 09:22:19;;;;;;;7.43;3.80;;;;;;;23.89;52.39;100783.50;4960591;28;20046;-80
2021/08/15 09:25:00;;;;;;;8.20;4.25;;;;;;;23.89;52.62;100777.25;4966097;28;20043;-80
2021/08/15 09:27:36;;;;;;;9.65;4.07;;;;;;;24.20;52.10;100773.94;4974441;28;20050;-81
2021/08/15 09:30:10;;;;;;;7.85;4.28;;;;;;;24.33;50.77;100766.69;4959718;28;20135;-80
2021/08/15 09:32:41;;;;;;;7.43;4.38;;;;;;;24.55;50.22;100760.50;4944900;28;20051;-79
2021/08/15 09:35:09;;;;;;;7.65;4.50;;;;;;;24.57;48.39;100761.25;4938483;28;20043;-80
2021/08/15 09:37:36;;;;;;;7.20;4.10;;;;;;;24.36;49.92;100758.34;4973637;28;20088;-79
2021/08/15 09:40:21;;;;;;;9.25;4.38;;;;;;;24.52;48.54;100754.47;4972143;28;20069;-80
2021/08/15 09:42:48;;;;;;;7.15;4.13;;;;;;;24.75;49.65;100747.28;4994248;28;20065;-79
2021/08/15 09:45:17;;;;;;;8.50;4.82;;;;;;;24.83;48.27;100750.25;4967384;28;20038;-82
2021/08/15 09:47:44;;;;;;;7.28;4.40;;;;;;;24.95;48.66;100738.44;4958882;28;20050;-80
2021/08/15 09:50:23;;;;;;;8.90;4.05;;;;;;;24.90;48.41;100740.69;4945262;28;20039;-83
2021/08/15 09:52:50;;;;;;;7.40;4.15;;;;;;;25.07;48.11;100734.81;4941715;28;20105;-81
2021/08/15 09:55:17;;;;;;;7.10;4.22;;;;;;;25.28;48.05;100743.03;4958150;28;20554;-81
2021/08/15 09:57:44;;;;;;;7.47;4.10;;;;;;;25.54;46.79;100732.78;4959350;28;20093;-81
2021/08/15 10:00:22;;;;;;;6.18;3.85;;;;;;;25.65;46.78;100740.06;4941152;28;20039;-83
2021/08/15 10:02:49;;;;;;;8.48;4.53;;;;;;;25.46;45.01;100733.41;4975999;28;20038;-80
2021/08/15 10:05:16;;;;;;;6.07;4.15;;;;;;;24.87;46.59;100719.28;4953753;28;20420;-81
2021/08/15 10:07:43;;;;;;;5.82;3.58;;;;;;;24.44;48.88;100719.94;4953807;28;20054;-80
2021/08/15 10:10:11;;;;;;;7.05;4.25;;;;;;;24.32;50.02;100727.16;4959602;28;20495;-82
2021/08/15 10:12:38;;;;;;;6.22;4.45;;;;;;;24.17;49.69;100727.44;4976441;28;20046;-82
2021/08/15 10:15:09;;;;;;;5.78;3.90;;;;;;;23.94;48.77;100721.94;4959982;28;20105;-81
2021/08/15 10:17:37;;;;;;;6.65;4.40;;;;;;;24.15;49.72;100719.47;4944170;28;20046;-81
2021/08/15 10:20:09;;;;;;;8.18;4.45;;;;;;;24.56;49.19;100710.91;4932761;28;20046;-81
2021/08/15 10:22:37;;;;;;;9.02;4.38;;;;;;;24.99;47.18;100707.50;4958475;28;20047;-82
2021/08/15 10:25:07;;;;;;;9.15;4.85;;;;;;;24.89;46.38;100703.81;4956226;28;20046;-81
2021/08/15 10:27:52;;;;;;;7.13;4.10;;;;;;;25.16;47.92;100711.59;4959999;28;20042;-81
2021/08/15 10:30:19;;;;;;;8.13;4.80;;;;;;;25.46;47.25;100700.97;4939631;28;20415;-81
2021/08/15 10:32:54;;;;;;;5.63;3.90;;;;;;;25.65;44.20;100705.75;4970200;28;20045;-79
2021/08/15 10:35:25;;;;;;;5.65;3.67;;;;;;;25.45;44.48;100701.09;4954258;28;20046;-79
2021/08/15 10:37:57;;;;;;;6.75;4.07;;;;;;;25.19;44.65;100701.38;4969607;28;20042;-79
2021/08/15 10:40:39;;;;;;;8.18;4.00;;;;;;;24.87;46.17;100701.22;4972144;28;20491;-81
2021/08/15 10:43:13;;;;;;;7.30;4.70;;;;;;;25.16;45.83;100696.22;4950149;28;20034;-80
2021/08/15 10:45:40;;;;;;;8.30;4.72;;;;;;;24.99;46.69;100696.69;4965420;28;20070;-80
2021/08/15 10:48:12;;;;;;;7.55;4.03;;;;;;;24.86;46.89;100699.50;4970984;28;20714;-81
2021/08/15 10:50:47;;;;;;;6.15;4.32;;;;;;;24.86;46.78;100702.19;4954907;28;20050;-78
2021/08/15 10:53:26;;;;;;;7.30;4.05;;;;;;;24.78;46.55;100690.28;4936969;28;20039;-79
2021/08/15 10:56:04;;;;;;;5.78;3.30;;;;;;;24.71;47.79;100693.47;4949061;28;20042;-80
2021/08/15 10:58:42;;;;;;;6.22;4.20;;;;;;;24.71;47.59;100689.91;4942984;28;20099;-81
2021/08/15 11:01:11;;;;;;;4.55;3.65;;;;;;;24.71;47.23;100685.34;4923756;28;20173;-80
2021/08/15 11:03:48;;;;;;;5.15;3.55;;;;;;;24.62;47.76;100677.97;4970691;28;20042;-80
2021/08/15 11:06:29;;;;;;;6.20;3.53;;;;;;;24.50;47.10;100678.09;4956564;28;20039;-80
2021/08/15 11:08:58;;;;;;;5.60;3.42;;;;;;;24.69;47.73;100668.41;4968840;28;20035;-79
2021/08/15 11:11:26;;;;;;;5.63;3.58;;;;;;;25.04;47.32;100664.75;4951073;28;20046;-81
2021/08/15 11:14:18;;;;;;;7.47;4.47;;;;;;;25.57;43.88;100659.53;4966897;28;20047;-80
2021/08/15 11:16:50;;;;;;;5.22;3.53;;;;;;;25.83;44.46;100659.22;4969439;28;20038;-79
2021/08/15 11:19:17;;;;;;;5.70;4.30;;;;;;;25.83;44.05;100660.06;4968623;28;20427;-80
2021/08/15 11:22:19;;;;;;;7.18;3.70;;;;;;;25.85;43.35;100651.81;4971042;28;20092;-80
2021/08/15 11:24:51;;;;;;;5.43;4.10;;;;;;;26.20;44.37;100654.22;4873473;29;20044;-79
2021/08/15 11:27:18;;;;;;;6.80;3.60;;;;;;;26.30;42.83;100653.28;4956827;28;20070;-79